createdAt,value
2018-07-22T00:00:05.920Z,60.63
2018-07-22T00:02:34.409Z,59.77
2018-07-22T00:05:03.227Z,60.43
2018-07-22T00:07:31.765Z,59.98
2018-07-22T00:10:00.273Z,59.56
2018-07-22T00:12:28.801Z,59.58
2018-07-22T00:14:57.610Z,59.35
2018-07-22T00:17:26.434Z,60.14
2018-07-22T00:19:55.156Z,60.61
2018-07-22T00:22:23.772Z,60.66
2018-07-22T00:24:52.255Z,61.23
2018-07-22T00:27:20.772Z,60.72
2018-07-22T00:29:49.314Z,61.23
2018-07-22T00:32:17.805Z,60.97
2018-07-22T00:34:46.838Z,62.39
2018-07-22T00:37:15.301Z,65.93
2018-07-22T00:39:44.068Z,67.57
2018-07-22T00:42:12.558Z,69.35
2018-07-22T00:44:41.029Z,69.83
2018-07-22T00:47:09.499Z,70.68
2018-07-22T00:49:38.036Z,71.60
2018-07-22T00:52:06.784Z,72.53
2018-07-22T00:54:35.196Z,74.42
2018-07-22T00:57:04.617Z,74.94
2018-07-22T00:59:33.795Z,72.73
2018-07-22T01:02:02.414Z,74.35
2018-07-22T01:04:30.813Z,73.64
2018-07-22T01:06:59.418Z,72.59
2018-07-22T01:09:28.252Z,72.02
2018-07-22T01:11:56.983Z,70.79
2018-07-22T01:14:25.659Z,73.00
2018-07-22T01:16:54.397Z,74.67
2018-07-22T01:19:22.928Z,72.72
2018-07-22T01:21:51.496Z,73.03
2018-07-22T01:24:20.000Z,73.10
2018-07-22T01:26:48.453Z,73.29
2018-07-22T01:29:17.182Z,72.29
2018-07-22T01:31:45.738Z,72.31
2018-07-22T01:34:14.202Z,72.15
2018-07-22T01:36:42.984Z,72.83
2018-07-22T01:39:11.998Z,69.42
2018-07-22T01:41:40.705Z,68.77
2018-07-22T01:44:09.327Z,68.56
2018-07-22T01:46:38.104Z,70.71
2018-07-22T01:49:06.670Z,72.27
2018-07-22T01:51:35.391Z,74.13
2018-07-22T01:54:03.874Z,71.07
2018-07-22T01:56:32.491Z,70.59
2018-07-22T01:59:01.040Z,71.12
2018-07-22T02:01:29.583Z,71.20
2018-07-22T02:03:58.437Z,71.04
2018-07-22T02:06:26.887Z,70.57
2018-07-22T02:08:55.497Z,70.95
2018-07-22T02:11:23.977Z,70.61
2018-07-22T02:13:52.559Z,70.00
2018-07-22T02:16:21.036Z,68.79
2018-07-22T02:18:49.539Z,68.83
2018-07-22T02:21:18.052Z,69.30
2018-07-22T02:23:47.117Z,70.00
2018-07-22T02:26:15.666Z,71.04
2018-07-22T02:28:44.313Z,70.27
2018-07-22T02:31:13.407Z,70.31
2018-07-22T02:33:42.323Z,71.57
2018-07-22T02:36:10.935Z,71.92
2018-07-22T02:38:39.766Z,70.94
2018-07-22T02:41:08.505Z,70.46
2018-07-22T02:43:37.051Z,70.56
2018-07-22T02:46:05.552Z,70.19
2018-07-22T02:48:34.019Z,70.07
2018-07-22T02:51:02.486Z,71.22
2018-07-22T02:53:31.382Z,71.27
2018-07-22T02:55:59.893Z,70.56
2018-07-22T02:58:28.426Z,70.96
2018-07-22T03:00:56.953Z,71.07
2018-07-22T03:03:25.476Z,70.14
2018-07-22T03:05:53.911Z,71.35
2018-07-22T03:08:22.405Z,69.00
2018-07-22T03:10:51.197Z,69.87
2018-07-22T03:13:19.777Z,69.22
2018-07-22T03:15:48.499Z,69.14
2018-07-22T03:18:17.323Z,69.26
2018-07-22T03:20:46.032Z,68.40
2018-07-22T03:23:14.764Z,68.61
2018-07-22T03:25:43.435Z,67.55
2018-07-22T03:28:12.203Z,68.70
2018-07-22T03:30:41.091Z,67.42
2018-07-22T03:33:09.504Z,67.72
2018-07-22T03:35:37.931Z,67.41
2018-07-22T03:38:06.727Z,67.77
2018-07-22T03:40:35.129Z,67.21
2018-07-22T03:43:03.581Z,67.17
2018-07-22T03:45:32.164Z,67.35
2018-07-22T03:48:00.880Z,67.74
2018-07-22T03:50:29.576Z,68.26
2018-07-22T03:52:58.178Z,68.66
2018-07-22T03:55:26.640Z,69.11
2018-07-22T03:57:55.372Z,69.97
2018-07-22T04:00:23.851Z,70.15
2018-07-22T04:02:52.289Z,70.53
2018-07-22T04:05:21.017Z,70.57
2018-07-22T04:07:49.624Z,71.41
2018-07-22T04:10:18.334Z,71.45
2018-07-22T04:12:46.860Z,71.29
2018-07-22T04:15:15.468Z,71.76
2018-07-22T04:17:44.047Z,71.92
2018-07-22T04:20:12.613Z,71.63
2018-07-22T04:22:41.144Z,72.18
2018-07-22T04:25:09.993Z,72.62
2018-07-22T04:27:38.981Z,72.32
2018-07-22T04:30:07.963Z,72.34
2018-07-22T04:32:36.668Z,72.46
2018-07-22T04:35:05.184Z,71.92
2018-07-22T04:37:34.008Z,71.34
2018-07-22T04:40:02.737Z,71.95
2018-07-22T04:42:31.248Z,71.30
2018-07-22T04:44:59.779Z,71.83
2018-07-22T04:47:28.727Z,72.07
2018-07-22T04:49:57.204Z,71.37
2018-07-22T04:52:25.894Z,71.90
2018-07-22T04:54:54.383Z,71.36
2018-07-22T04:57:22.858Z,71.30
2018-07-22T04:59:51.269Z,70.36
2018-07-22T05:02:19.728Z,71.14
2018-07-22T05:04:48.229Z,70.93
2018-07-22T05:07:16.693Z,70.30
2018-07-22T05:09:46.487Z,69.86
2018-07-22T05:12:15.051Z,69.65
2018-07-22T05:14:43.624Z,69.77
2018-07-22T05:17:12.514Z,69.31
2018-07-22T05:19:41.346Z,69.08
2018-07-22T05:22:09.873Z,68.72
2018-07-22T05:24:38.363Z,68.11
2018-07-22T05:27:06.970Z,67.81
2018-07-22T05:29:35.726Z,67.41
2018-07-22T05:32:04.422Z,68.05
2018-07-22T05:34:33.032Z,67.30
2018-07-22T05:37:01.765Z,67.07
2018-07-22T05:39:30.224Z,66.33
2018-07-22T05:41:58.658Z,65.77
2018-07-22T05:44:27.168Z,66.13
2018-07-22T05:46:55.877Z,65.47
2018-07-22T05:49:24.404Z,65.18
2018-07-22T05:51:52.916Z,64.53
2018-07-22T05:54:21.702Z,64.04
2018-07-22T05:56:50.288Z,63.96
2018-07-22T05:59:18.826Z,62.84
2018-07-22T06:01:47.677Z,63.42
2018-07-22T06:04:16.190Z,62.94
2018-07-22T06:06:44.863Z,62.40
2018-07-22T06:09:13.345Z,62.07
2018-07-22T06:11:41.995Z,60.86
2018-07-22T06:14:10.903Z,61.61
2018-07-22T06:16:40.067Z,62.35
2018-07-22T06:19:08.938Z,61.59
2018-07-22T06:21:38.280Z,60.75
2018-07-22T06:24:07.174Z,61.13
2018-07-22T06:26:39.733Z,61.74
2018-07-22T06:29:08.833Z,61.21
2018-07-22T06:31:38.852Z,61.06
2018-07-22T06:34:08.832Z,61.33
2018-07-22T06:36:37.982Z,61.70
2018-07-22T06:39:10.743Z,61.23
2018-07-22T06:41:39.310Z,59.85
2018-07-22T06:44:08.560Z,60.30
2018-07-22T06:46:37.101Z,61.17
2018-07-22T06:49:07.733Z,59.74
2018-07-22T06:51:36.408Z,60.17
2018-07-22T06:54:05.000Z,60.12
2018-07-22T06:56:33.815Z,60.44
2018-07-22T06:59:02.439Z,59.72
2018-07-22T07:01:32.576Z,59.27
2018-07-22T07:04:02.211Z,59.70
2018-07-22T07:06:30.823Z,59.60
2018-07-22T07:08:59.272Z,58.55
2018-07-22T07:11:28.038Z,58.44
2018-07-22T07:13:57.132Z,57.73
2018-07-22T07:16:25.941Z,56.46
2018-07-22T07:18:54.641Z,58.08
2018-07-22T07:21:23.189Z,57.84
2018-07-22T07:23:51.899Z,55.37
2018-07-22T07:26:20.516Z,54.72
2018-07-22T07:28:49.773Z,53.40
2018-07-22T07:31:21.342Z,54.01
2018-07-22T07:33:49.922Z,54.21
2018-07-22T07:36:18.589Z,52.84
2018-07-22T07:38:47.157Z,52.16
2018-07-22T07:41:15.672Z,52.63
2018-07-22T07:43:44.227Z,53.59
2018-07-22T07:46:12.763Z,51.94
2018-07-22T07:48:45.189Z,50.61
2018-07-22T07:51:13.689Z,50.17
2018-07-22T07:53:42.284Z,50.51
2018-07-22T07:56:10.761Z,50.49
2018-07-22T07:58:39.636Z,51.11
2018-07-22T08:01:08.158Z,52.23
2018-07-22T08:03:37.484Z,51.49
2018-07-22T08:06:06.917Z,50.26
2018-07-22T08:08:35.399Z,50.04
2018-07-22T08:11:04.280Z,49.19
2018-07-22T08:13:32.969Z,49.87
2018-07-22T08:16:01.370Z,49.87
2018-07-22T08:18:30.029Z,50.80
2018-07-22T08:20:58.688Z,50.17
2018-07-22T08:23:27.390Z,49.42
2018-07-22T08:25:55.870Z,49.97
2018-07-22T08:28:35.399Z,49.96
2018-07-22T08:31:04.191Z,50.10
2018-07-22T08:33:32.653Z,49.20
2018-07-22T08:36:01.472Z,50.10
2018-07-22T08:38:29.938Z,49.40
2018-07-22T08:40:58.886Z,50.33
2018-07-22T08:43:27.395Z,49.50
2018-07-22T08:45:55.896Z,50.14
2018-07-22T08:48:24.428Z,50.52
2018-07-22T08:50:52.931Z,50.42
2018-07-22T08:53:21.832Z,50.40
2018-07-22T08:55:50.362Z,49.50
2018-07-22T08:58:19.346Z,50.80
2018-07-22T09:00:48.009Z,50.83
2018-07-22T09:03:16.675Z,50.04
2018-07-22T09:05:45.552Z,49.62
2018-07-22T09:08:14.092Z,49.79
2018-07-22T09:10:42.588Z,50.55
2018-07-22T09:13:11.208Z,50.49
2018-07-22T09:15:39.745Z,51.57
2018-07-22T09:18:08.649Z,51.27
2018-07-22T09:20:37.127Z,51.51
2018-07-22T09:23:05.916Z,52.38
2018-07-22T09:25:34.429Z,52.51
2018-07-22T09:28:02.973Z,52.36
2018-07-22T09:30:31.571Z,52.37
2018-07-22T09:33:00.082Z,52.82
2018-07-22T09:35:28.564Z,53.02
2018-07-22T09:37:57.242Z,52.79
2018-07-22T09:40:26.094Z,51.88
2018-07-22T09:42:55.102Z,52.88
2018-07-22T09:45:23.508Z,51.49
2018-07-22T09:47:51.957Z,51.91
2018-07-22T09:50:20.681Z,51.25
2018-07-22T09:52:49.426Z,50.19
2018-07-22T09:55:18.700Z,50.60
2018-07-22T09:57:47.764Z,49.40
2018-07-22T10:00:22.075Z,49.63
2018-07-22T10:02:50.644Z,49.62
2018-07-22T10:05:19.046Z,49.48
2018-07-22T10:07:47.552Z,49.30
2018-07-22T10:10:16.676Z,48.96
2018-07-22T10:12:46.068Z,48.95
2018-07-22T10:15:14.538Z,49.50
2018-07-22T10:17:43.122Z,48.82
2018-07-22T10:20:11.681Z,47.54
2018-07-22T10:22:40.638Z,48.39
2018-07-22T10:25:09.418Z,47.22
2018-07-22T10:27:38.976Z,47.53
2018-07-22T10:30:07.775Z,48.45
2018-07-22T10:32:36.572Z,48.31
2018-07-22T10:35:05.470Z,47.50
2018-07-22T10:37:33.980Z,47.05
2018-07-22T10:40:03.102Z,47.55
2018-07-22T10:42:31.819Z,47.09
2018-07-22T10:45:00.351Z,46.75
2018-07-22T10:47:28.885Z,46.38
2018-07-22T10:49:57.448Z,46.69
2018-07-22T10:52:25.900Z,46.05
2018-07-22T10:54:54.566Z,46.29
2018-07-22T10:57:23.472Z,46.15
2018-07-22T10:59:52.067Z,45.91
2018-07-22T11:02:20.954Z,46.04
2018-07-22T11:04:49.510Z,45.23
2018-07-22T11:07:18.623Z,45.29
2018-07-22T11:09:47.371Z,46.43
2018-07-22T11:12:16.111Z,46.36
2018-07-22T11:14:44.832Z,47.03
2018-07-22T11:17:13.551Z,46.28
2018-07-22T11:19:42.364Z,45.37
2018-07-22T11:22:11.129Z,44.86
2018-07-22T11:24:40.379Z,43.42
2018-07-22T11:27:09.468Z,43.38
2018-07-22T11:29:38.360Z,43.89
2018-07-22T11:32:07.239Z,45.37
2018-07-22T11:34:35.904Z,44.69
2018-07-22T11:37:04.394Z,45.40
2018-07-22T11:39:33.231Z,43.94
2018-07-22T11:42:01.840Z,42.78
2018-07-22T11:44:30.861Z,42.94
2018-07-22T11:46:59.449Z,42.98
2018-07-22T11:49:27.991Z,44.72
2018-07-22T11:51:56.744Z,43.39
2018-07-22T11:54:25.222Z,43.09
2018-07-22T11:56:53.739Z,45.52
2018-07-22T11:59:22.576Z,47.03
2018-07-22T12:01:51.962Z,47.57
2018-07-22T12:04:20.456Z,48.53
2018-07-22T12:06:48.925Z,55.18
2018-07-22T12:09:17.746Z,57.84
2018-07-22T12:11:46.256Z,71.09
2018-07-22T12:14:15.000Z,79.92
2018-07-22T12:16:44.167Z,78.24
2018-07-22T12:19:14.731Z,84.54
2018-07-22T12:21:45.734Z,92.12
2018-07-22T12:24:15.425Z,89.91
2018-07-22T12:26:46.133Z,93.83
2018-07-22T12:29:15.491Z,91.41
2018-07-22T12:31:45.167Z,93.53
2018-07-22T12:34:14.043Z,95.32
2018-07-22T12:36:44.113Z,94.51
2018-07-22T12:39:13.507Z,97.07
2018-07-22T12:41:42.959Z,97.28
2018-07-22T12:44:13.188Z,96.91
2018-07-22T12:46:43.402Z,95.96
2018-07-22T12:49:15.186Z,96.35
2018-07-22T12:51:45.070Z,93.90
2018-07-22T12:54:13.879Z,93.06
2018-07-22T12:56:44.407Z,95.82
2018-07-22T12:59:13.019Z,96.55
2018-07-22T13:01:42.280Z,94.63
2018-07-22T13:04:11.066Z,95.45
2018-07-22T13:06:40.886Z,90.88
2018-07-22T13:09:11.030Z,91.62
2018-07-22T13:11:40.384Z,89.71
2018-07-22T13:14:09.518Z,93.54
2018-07-22T13:16:38.107Z,91.74
2018-07-22T13:19:06.753Z,92.47
2018-07-22T13:21:35.180Z,92.26
2018-07-22T13:24:04.738Z,94.12
2018-07-22T13:26:33.469Z,93.95
2018-07-22T13:29:01.966Z,93.98
2018-07-22T13:31:30.915Z,92.82
2018-07-22T13:33:59.684Z,92.85
2018-07-22T13:36:28.840Z,93.49
2018-07-22T13:38:58.732Z,94.43
2018-07-22T13:41:28.357Z,94.63
2018-07-22T13:43:58.023Z,90.84
2018-07-22T13:46:27.305Z,90.02
2018-07-22T13:48:59.267Z,93.01
2018-07-22T13:51:28.998Z,92.42
2018-07-22T13:54:00.135Z,92.59
2018-07-22T13:56:29.705Z,92.23
2018-07-22T13:58:58.210Z,89.78
2018-07-22T14:01:26.832Z,91.96
2018-07-22T14:03:55.532Z,92.08
2018-07-22T14:06:24.224Z,85.20
2018-07-22T14:08:52.938Z,85.73
2018-07-22T14:11:21.825Z,85.45
2018-07-22T14:13:50.368Z,83.52
2018-07-22T14:16:19.196Z,82.77
2018-07-22T14:18:47.894Z,83.29
2018-07-22T14:21:16.615Z,82.37
2018-07-22T14:23:45.564Z,79.54
2018-07-22T14:26:14.433Z,78.76
2018-07-22T14:28:42.872Z,79.92
2018-07-22T14:31:11.360Z,84.57
2018-07-22T14:33:40.085Z,82.57
2018-07-22T14:36:08.527Z,83.89
2018-07-22T14:38:37.199Z,86.86
2018-07-22T14:41:05.967Z,86.61
2018-07-22T14:43:34.472Z,87.20
2018-07-22T14:46:02.925Z,85.69
2018-07-22T14:48:31.507Z,81.45
2018-07-22T14:51:00.236Z,85.98
2018-07-22T14:53:28.873Z,88.88
2018-07-22T14:55:57.942Z,86.12
2018-07-22T14:58:26.577Z,88.41
2018-07-22T15:00:55.118Z,87.23
2018-07-22T15:03:23.723Z,86.74
2018-07-22T15:05:52.707Z,85.50
2018-07-22T15:08:21.783Z,86.21
2018-07-22T15:10:50.776Z,84.09
2018-07-22T15:13:19.987Z,84.69
2018-07-22T15:15:48.911Z,83.99
2018-07-22T15:18:17.808Z,82.25
2018-07-22T15:20:46.465Z,88.02
2018-07-22T15:23:15.661Z,88.11
2018-07-22T15:25:44.413Z,88.49
2018-07-22T15:28:13.225Z,89.84
2018-07-22T15:30:42.470Z,88.78
2018-07-22T15:33:11.291Z,90.00
2018-07-22T15:35:40.143Z,88.84
2018-07-22T15:38:09.302Z,88.56
2018-07-22T15:40:37.954Z,89.37
2018-07-22T15:43:07.190Z,89.42
2018-07-22T15:45:36.378Z,87.44
2018-07-22T15:48:05.854Z,89.37
2018-07-22T15:50:34.780Z,91.47
2018-07-22T15:53:03.346Z,90.57
2018-07-22T15:55:32.229Z,88.08
2018-07-22T15:58:00.808Z,89.25
2018-07-22T16:00:29.819Z,88.92
2018-07-22T16:02:59.564Z,91.32
2018-07-22T16:05:28.638Z,91.29
2018-07-22T16:07:57.759Z,93.08
2018-07-22T16:10:28.047Z,93.32
2018-07-22T16:12:56.756Z,93.83
2018-07-22T16:15:25.693Z,94.98
2018-07-22T16:17:54.279Z,93.45
2018-07-22T16:20:22.959Z,93.16
2018-07-22T16:22:51.988Z,92.64
2018-07-22T16:25:21.201Z,92.82
2018-07-22T16:27:49.674Z,94.34
2018-07-22T16:30:18.851Z,93.33
2018-07-22T16:32:47.536Z,92.48
2018-07-22T16:35:16.290Z,91.59
2018-07-22T16:37:44.978Z,91.73
2018-07-22T16:40:14.139Z,92.35
2018-07-22T16:42:42.760Z,90.95
2018-07-22T16:45:11.568Z,90.68
2018-07-22T16:47:40.314Z,91.26
2018-07-22T16:50:08.973Z,89.52
2018-07-22T16:52:37.589Z,91.36
2018-07-22T16:55:06.133Z,91.27
2018-07-22T16:57:35.234Z,88.20
2018-07-22T17:00:03.854Z,90.15
2018-07-22T17:02:33.605Z,89.33
2018-07-22T17:05:02.302Z,88.88
2018-07-22T17:07:31.478Z,88.45
2018-07-22T17:10:00.339Z,87.63
2018-07-22T17:12:29.320Z,87.37
2018-07-22T17:14:57.827Z,87.99
2018-07-22T17:17:27.262Z,87.94
2018-07-22T17:19:55.683Z,87.71
2018-07-22T17:22:24.159Z,87.96
2018-07-22T17:24:53.021Z,87.02
2018-07-22T17:27:21.487Z,85.79
2018-07-22T17:29:50.022Z,83.55
2018-07-22T17:32:18.701Z,83.17
2018-07-22T17:34:47.392Z,83.90
2018-07-22T17:37:16.080Z,83.20
2018-07-22T17:39:44.809Z,84.83
2018-07-22T17:42:13.262Z,83.42
2018-07-22T17:44:42.952Z,82.52
2018-07-22T17:47:11.672Z,82.20
2018-07-22T17:49:40.236Z,82.51
2018-07-22T17:52:08.936Z,82.78
2018-07-22T17:54:37.328Z,82.18
2018-07-22T17:57:06.189Z,80.53
2018-07-22T17:59:34.742Z,81.37
2018-07-22T18:02:03.768Z,82.06
2018-07-22T18:04:32.750Z,82.64
2018-07-22T18:07:01.975Z,85.64
2018-07-22T18:09:30.488Z,86.57
2018-07-22T18:11:59.046Z,86.76
2018-07-22T18:14:27.687Z,87.84
2018-07-22T18:16:56.380Z,86.78
2018-07-22T18:19:25.103Z,87.57
2018-07-22T18:21:54.143Z,87.82
2018-07-22T18:24:23.949Z,89.57
2018-07-22T18:26:52.529Z,89.60
2018-07-22T18:29:21.043Z,89.34
2018-07-22T18:31:49.764Z,90.19
2018-07-22T18:34:18.278Z,90.05
2018-07-22T18:36:46.828Z,89.64
2018-07-22T18:39:15.356Z,90.13
2018-07-22T18:41:44.157Z,89.13
2018-07-22T18:44:12.948Z,90.34
2018-07-22T18:46:41.453Z,90.55
2018-07-22T18:49:09.914Z,91.27
2018-07-22T18:51:38.440Z,91.59
2018-07-22T18:54:07.541Z,91.87
2018-07-22T18:56:36.100Z,92.07
2018-07-22T18:59:04.848Z,91.49
2018-07-22T19:01:33.511Z,91.19
2018-07-22T19:04:02.019Z,90.12
2018-07-22T19:06:30.687Z,89.54
2018-07-22T19:08:59.332Z,89.72
2018-07-22T19:11:27.883Z,88.15
2018-07-22T19:13:56.394Z,86.84
2018-07-22T19:16:24.963Z,88.19
2018-07-22T19:18:53.490Z,89.60
2018-07-22T19:21:22.188Z,88.86
2018-07-22T19:23:51.700Z,88.53
2018-07-22T19:26:20.458Z,89.81
2018-07-22T19:28:48.917Z,90.36
2018-07-22T19:31:17.694Z,90.67
2018-07-22T19:33:46.135Z,90.31
2018-07-22T19:36:14.538Z,91.53
2018-07-22T19:38:43.030Z,93.42
2018-07-22T19:41:11.399Z,93.94
2018-07-22T19:43:39.775Z,93.51
2018-07-22T19:46:08.143Z,93.82
2018-07-22T19:48:36.614Z,94.51
2018-07-22T19:51:05.101Z,94.41
2018-07-22T19:53:33.672Z,94.42
2018-07-22T19:56:02.032Z,94.18
2018-07-22T19:58:30.444Z,94.92
2018-07-22T20:00:58.977Z,96.18
2018-07-22T20:03:27.385Z,96.99
2018-07-22T20:05:55.887Z,97.34
2018-07-22T20:08:24.352Z,97.09
2018-07-22T20:10:52.760Z,97.40
2018-07-22T20:13:21.170Z,97.38
2018-07-22T20:15:49.666Z,96.99
2018-07-22T20:18:18.063Z,97.87
2018-07-22T20:20:46.449Z,97.63
2018-07-22T20:23:14.923Z,97.57
2018-07-22T20:25:43.421Z,97.08
2018-07-22T20:28:11.885Z,95.87
2018-07-22T20:30:40.276Z,95.57
2018-07-22T20:33:08.956Z,94.66
2018-07-22T20:35:37.504Z,94.50
2018-07-22T20:38:05.925Z,95.32
2018-07-22T20:40:34.365Z,95.66
2018-07-22T20:43:02.807Z,96.07
2018-07-22T20:45:31.189Z,95.80
2018-07-22T20:47:59.574Z,95.06
2018-07-22T20:50:28.151Z,94.49
2018-07-22T20:52:56.596Z,93.81
2018-07-22T20:55:25.016Z,94.04
2018-07-22T20:57:53.856Z,93.20
2018-07-22T21:00:22.300Z,94.41
2018-07-22T21:02:50.819Z,93.54
2018-07-22T21:05:19.382Z,94.83
2018-07-22T21:07:47.743Z,95.18
2018-07-22T21:10:16.155Z,95.78
2018-07-22T21:12:56.254Z,97.31
2018-07-22T21:15:24.704Z,96.32
2018-07-22T21:17:53.172Z,97.67
2018-07-22T21:20:22.310Z,97.02
2018-07-22T21:22:50.812Z,96.70
2018-07-22T21:25:19.674Z,96.95
2018-07-22T21:27:48.160Z,96.72
2018-07-22T21:30:16.744Z,96.27
2018-07-22T21:32:45.128Z,96.53
2018-07-22T21:35:13.587Z,96.51
2018-07-22T21:37:41.984Z,97.26
2018-07-22T21:40:10.369Z,97.14
2018-07-22T21:42:39.528Z,97.73
2018-07-22T21:45:09.018Z,96.90
2018-07-22T21:47:37.917Z,98.04
2018-07-22T21:50:07.712Z,97.92
2018-07-22T21:52:37.080Z,96.97
2018-07-22T21:55:06.554Z,97.44
2018-07-22T21:57:35.042Z,97.66
2018-07-22T22:00:03.701Z,98.28
2018-07-22T22:02:33.265Z,97.50
2018-07-22T22:05:02.875Z,98.03
2018-07-22T22:07:31.761Z,97.31
2018-07-22T22:10:00.500Z,97.80
2018-07-22T22:12:29.217Z,98.26
2018-07-22T22:14:57.896Z,98.49
2018-07-22T22:17:26.307Z,98.39
2018-07-22T22:19:54.680Z,98.47
2018-07-22T22:22:23.054Z,98.39
2018-07-22T22:24:51.440Z,98.26
2018-07-22T22:27:20.165Z,97.31
2018-07-22T22:29:48.775Z,98.06
2018-07-22T22:32:17.196Z,97.95
2018-07-22T22:34:45.577Z,97.59
2018-07-22T22:37:15.219Z,97.51
2018-07-22T22:39:44.680Z,96.92
2018-07-22T22:42:13.208Z,98.03
2018-07-22T22:44:41.568Z,97.75
2018-07-22T22:47:10.391Z,97.65
2018-07-22T22:49:39.398Z,97.88
2018-07-22T22:52:07.911Z,97.04
2018-07-22T22:54:37.136Z,97.75
2018-07-22T22:57:06.144Z,96.76
2018-07-22T22:59:34.535Z,97.93
2018-07-22T23:02:03.782Z,97.88
2018-07-22T23:04:32.318Z,98.34
2018-07-22T23:07:00.752Z,98.48
2018-07-22T23:09:29.581Z,98.11
2018-07-22T23:11:58.264Z,98.05
2018-07-22T23:14:26.800Z,98.68
2018-07-22T23:16:55.185Z,98.14
2018-07-22T23:19:23.535Z,99.05
2018-07-22T23:21:51.881Z,99.31
2018-07-22T23:24:20.228Z,99.85
2018-07-22T23:26:48.580Z,100.00
2018-07-22T23:29:17.093Z,100.00
2018-07-22T23:31:45.437Z,100.00
2018-07-22T23:34:13.775Z,100.00
2018-07-22T23:36:42.124Z,100.00
2018-07-22T23:39:10.576Z,100.00
2018-07-22T23:41:38.963Z,100.00
2018-07-22T23:44:07.520Z,100.00
2018-07-22T23:46:35.880Z,100.00
2018-07-22T23:49:04.328Z,100.00
2018-07-22T23:51:32.709Z,100.00
2018-07-22T23:54:01.109Z,100.00
2018-07-22T23:56:29.466Z,100.00
2018-07-22T23:58:57.890Z,100.00
